Waterville Valley, New Hampshire
Current Conditions -  °F | °C
As of 2:15 PM on Thursday 18 Dec 2014 (Local Time) from K1P1 Reporting Station
Overcast Overcast  
Wind Chill: 28°   Ceiling: 2500
Heat Index: 35°   Visibility: 10mi
Dew Point: 32°   Wind: 10mph
Humidity: 88%   Direction: 280°W
Pressure: 29.75"   Gusts: 18mph
Location:  43.95°N, 71.5°W
Report Text: K1P1 181915Z AUTO 28009G16KT 10SM BKN025 OVC032 02/00 A2975 RMK AO2 T00180000
Loading
Personal Weather Stations






























Interactive Weather Map New forecast layout! Learn more

10-Day Weather Forecast

Advertisements
Track Severe Weather on mobile